Time;durP1;ratioP1;P1;durP2;ratioP2;P2;SDS_P1;SDS_P2;PMS_P1;PMS_P2;Temp;Humidity;BMP_temperature;BMP_pressure;BME280_temperature;BME280_humidity;BME280_pressure;Samples;Min_cycle;Max_cycle;Signal;HPM_P1;HPM_P2
2023/08/26 00:00:29;;;;;;;56.45;31.40;;;;;;;;;;5054425;28;20035;-70
2023/08/26 00:02:55;;;;;;;56.85;30.35;;;;;;;;;;5052590;28;20064;-70
2023/08/26 00:05:20;;;;;;;58.33;31.63;;;;;;;;;;5054306;28;20084;-70
2023/08/26 00:07:45;;;;;;;57.80;30.55;;;;;;;;;;5052318;28;20029;-71
2023/08/26 00:10:11;;;;;;;57.92;30.90;;;;;;;;;;5053270;28;20108;-71
2023/08/26 00:12:36;;;;;;;62.28;31.45;;;;;;;;;;5051381;28;20020;-70
2023/08/26 00:15:01;;;;;;;61.85;32.83;;;;;;;;;;5052373;28;20052;-69
2023/08/26 00:17:26;;;;;;;56.63;31.10;;;;;;;;;;5057343;28;20075;-69
2023/08/26 00:19:52;;;;;;;63.38;32.15;;;;;;;;;;5060084;28;20048;-71
2023/08/26 00:22:20;;;;;;;61.42;32.50;;;;;;;;;;5057919;28;20032;-70
2023/08/26 00:24:47;;;;;;;61.97;32.33;;;;;;;;;;5053581;28;20025;-70
2023/08/26 00:27:12;;;;;;;64.45;32.22;;;;;;;;;;5050947;28;20113;-78
2023/08/26 00:29:38;;;;;;;61.20;31.90;;;;;;;;;;5049504;28;20096;-70
2023/08/26 00:32:03;;;;;;;64.68;33.90;;;;;;;;;;5052491;28;20426;-76
2023/08/26 00:34:28;;;;;;;65.88;34.10;;;;;;;;;;5049799;28;20021;-76
2023/08/26 00:36:54;;;;;;;78.18;33.78;;;;;;;;;;5054733;28;20021;-77
2023/08/26 00:39:19;;;;;;;68.95;34.75;;;;;;;;;;5056810;28;20104;-72
2023/08/26 00:41:44;;;;;;;71.07;34.63;;;;;;;;;;5053421;28;20028;-72
2023/08/26 00:44:09;;;;;;;67.90;34.15;;;;;;;;;;5053124;28;20021;-70
2023/08/26 00:46:35;;;;;;;81.10;37.22;;;;;;;;;;5051544;28;20036;-72
2023/08/26 00:49:00;;;;;;;78.13;35.42;;;;;;;;;;5056052;28;20372;-69
2023/08/26 00:51:26;;;;;;;81.55;38.03;;;;;;;;;;5047985;28;20029;-69
2023/08/26 00:53:51;;;;;;;77.55;35.95;;;;;;;;;;5051169;28;20120;-71
2023/08/26 00:56:16;;;;;;;83.07;36.40;;;;;;;;;;5050759;28;20033;-72
2023/08/26 00:58:43;;;;;;;84.88;37.00;;;;;;;;;;5063233;28;20472;-73
2023/08/26 01:04:11;;;;;;;83.10;38.47;;;;;;;;;;5066152;22;20052;-69
2023/08/26 01:06:36;;;;;;;77.38;38.25;;;;;;;;;;5043963;28;20018;-68
2023/08/26 01:09:03;;;;;;;87.45;38.53;;;;;;;;;;5041777;28;20105;-69
2023/08/26 01:11:32;;;;;;;87.13;37.20;;;;;;;;;;5045924;28;20552;-68
2023/08/26 01:14:04;;;;;;;87.30;38.20;;;;;;;;;;5046583;28;20022;-68
2023/08/26 01:16:30;;;;;;;94.60;40.03;;;;;;;;;;5040910;28;20484;-68
2023/08/26 01:18:56;;;;;;;91.93;39.53;;;;;;;;;;5042654;28;20025;-69
2023/08/26 01:21:23;;;;;;;97.93;40.20;;;;;;;;;;5044786;28;20381;-69
2023/08/26 01:23:48;;;;;;;100.03;41.25;;;;;;;;;;5045698;28;20423;-69
2023/08/26 01:26:15;;;;;;;110.55;42.55;;;;;;;;;;5051240;28;20040;-68
2023/08/26 01:28:40;;;;;;;109.65;41.60;;;;;;;;;;5045968;28;20032;-68
2023/08/26 01:31:10;;;;;;;115.10;43.67;;;;;;;;;;5049750;28;20469;-68
2023/08/26 01:33:38;;;;;;;117.70;44.35;;;;;;;;;;5044582;28;20022;-70
2023/08/26 01:36:08;;;;;;;115.20;42.78;;;;;;;;;;5027398;28;20028;-70
2023/08/26 01:38:34;;;;;;;117.72;43.70;;;;;;;;;;5045341;28;20036;-69
2023/08/26 01:41:01;;;;;;;114.85;44.33;;;;;;;;;;5041014;28;20025;-69
2023/08/26 01:43:27;;;;;;;106.47;41.78;;;;;;;;;;5038342;28;20373;-68
2023/08/26 01:45:52;;;;;;;109.72;42.55;;;;;;;;;;5046365;28;20025;-68
2023/08/26 01:48:17;;;;;;;103.60;40.17;;;;;;;;;;5045408;28;20052;-69
2023/08/26 01:50:43;;;;;;;96.95;41.22;;;;;;;;;;5045762;28;20028;-69
2023/08/26 01:53:08;;;;;;;100.80;41.05;;;;;;;;;;5043800;28;20017;-69
2023/08/26 01:55:34;;;;;;;99.00;40.83;;;;;;;;;;5044316;28;20025;-69
2023/08/26 01:57:59;;;;;;;90.38;39.30;;;;;;;;;;5034500;28;20029;-68
2023/08/26 02:00:24;;;;;;;92.97;39.72;;;;;;;;;;5034703;28;20102;-68
2023/08/26 02:02:50;;;;;;;87.38;38.85;;;;;;;;;;5047699;28;20044;-68
2023/08/26 02:05:15;;;;;;;91.93;39.92;;;;;;;;;;5032981;28;20056;-69
2023/08/26 02:07:40;;;;;;;91.53;39.42;;;;;;;;;;5033241;28;20080;-68
2023/08/26 02:10:06;;;;;;;83.57;38.28;;;;;;;;;;5038327;28;20023;-69
2023/08/26 02:12:32;;;;;;;89.00;39.15;;;;;;;;;;5035969;28;20060;-69
2023/08/26 02:14:57;;;;;;;80.07;36.17;;;;;;;;;;5037788;28;20059;-70
2023/08/26 02:17:22;;;;;;;75.53;35.67;;;;;;;;;;5033400;28;20434;-69
2023/08/26 02:19:47;;;;;;;73.55;35.58;;;;;;;;;;5034671;28;20394;-69
2023/08/26 02:22:13;;;;;;;79.47;36.95;;;;;;;;;;5035505;28;20385;-66
2023/08/26 02:24:38;;;;;;;74.35;36.03;;;;;;;;;;5045563;28;20021;-69
2023/08/26 02:27:03;;;;;;;79.75;35.83;;;;;;;;;;5036693;28;20064;-66
2023/08/26 02:29:30;;;;;;;77.50;35.45;;;;;;;;;;5041153;28;20021;-67
2023/08/26 02:31:55;;;;;;;83.15;37.58;;;;;;;;;;5031280;28;20476;-66
2023/08/26 02:34:20;;;;;;;79.25;36.92;;;;;;;;;;5031555;28;20029;-67
2023/08/26 02:36:45;;;;;;;84.88;38.17;;;;;;;;;;5032386;28;20021;-67
2023/08/26 02:39:11;;;;;;;85.03;37.53;;;;;;;;;;5038477;28;20029;-66
2023/08/26 02:41:36;;;;;;;83.22;37.92;;;;;;;;;;5034655;28;20022;-67
2023/08/26 02:44:01;;;;;;;85.10;38.65;;;;;;;;;;5040000;28;20056;-68
2023/08/26 02:46:26;;;;;;;80.65;38.22;;;;;;;;;;5034997;28;20079;-67
2023/08/26 02:48:52;;;;;;;85.65;38.53;;;;;;;;;;5049472;28;20112;-67
2023/08/26 02:51:17;;;;;;;84.15;37.75;;;;;;;;;;5031342;28;20022;-67
2023/08/26 02:53:42;;;;;;;83.35;38.35;;;;;;;;;;5032538;28;20021;-67
2023/08/26 02:56:07;;;;;;;84.00;37.30;;;;;;;;;;5041542;28;20101;-67
2023/08/26 02:58:33;;;;;;;82.43;37.70;;;;;;;;;;5044418;28;20013;-67
2023/08/26 03:01:01;;;;;;;84.10;36.88;;;;;;;;;;5039895;28;20140;-67
2023/08/26 03:03:27;;;;;;;84.20;36.92;;;;;;;;;;5030831;28;20493;-68
2023/08/26 03:05:55;;;;;;;78.15;35.58;;;;;;;;;;5033368;28;20083;-69
2023/08/26 03:08:20;;;;;;;77.88;37.15;;;;;;;;;;5032432;28;20029;-68
2023/08/26 03:10:55;;;;;;;72.25;35.08;;;;;;;;;;5034125;28;20026;-69
2023/08/26 03:13:20;;;;;;;78.47;37.55;;;;;;;;;;5040151;28;20485;-69
2023/08/26 03:15:45;;;;;;;76.65;36.65;;;;;;;;;;5031799;28;20052;-69
2023/08/26 03:18:11;;;;;;;70.32;34.88;;;;;;;;;;5030821;28;20076;-68
2023/08/26 03:20:36;;;;;;;71.43;35.00;;;;;;;;;;5046262;28;20036;-68
2023/08/26 03:23:02;;;;;;;71.53;36.13;;;;;;;;;;5031725;28;20029;-69
2023/08/26 03:25:29;;;;;;;71.47;36.40;;;;;;;;;;5040769;28;20075;-68
2023/08/26 03:27:54;;;;;;;69.32;34.42;;;;;;;;;;5028014;28;20473;-69
2023/08/26 03:30:19;;;;;;;61.15;31.38;;;;;;;;;;5019610;28;20021;-67
2023/08/26 03:32:44;;;;;;;65.85;33.83;;;;;;;;;;5047889;28;20098;-67
2023/08/26 03:35:10;;;;;;;62.90;32.33;;;;;;;;;;5035037;28;20033;-66
2023/08/26 03:37:35;;;;;;;53.85;30.52;;;;;;;;;;5041336;28;20053;-68
2023/08/26 03:40:00;;;;;;;59.88;32.05;;;;;;;;;;5036562;28;20040;-66
2023/08/26 03:42:25;;;;;;;53.17;28.88;;;;;;;;;;5042724;28;20570;-67
2023/08/26 03:44:51;;;;;;;51.85;27.55;;;;;;;;;;5035679;28;20080;-67
2023/08/26 03:47:16;;;;;;;47.65;26.27;;;;;;;;;;5035770;28;20026;-67
2023/08/26 03:49:41;;;;;;;44.90;26.60;;;;;;;;;;5034447;28;20025;-68
2023/08/26 03:52:06;;;;;;;51.28;27.25;;;;;;;;;;5035540;28;20433;-67
2023/08/26 03:54:32;;;;;;;51.55;27.13;;;;;;;;;;5037630;28;20026;-68
2023/08/26 03:56:57;;;;;;;50.85;25.25;;;;;;;;;;5039008;28;20397;-68
2023/08/26 03:59:22;;;;;;;45.03;25.13;;;;;;;;;;5034394;28;20047;-67
2023/08/26 04:01:47;;;;;;;49.10;26.45;;;;;;;;;;5034472;28;20017;-66
2023/08/26 04:04:15;;;;;;;44.30;23.85;;;;;;;;;;5034144;28;20638;-68
2023/08/26 04:06:40;;;;;;;44.45;23.98;;;;;;;;;;5046484;28;20381;-66
2023/08/26 04:09:05;;;;;;;44.40;22.48;;;;;;;;;;5045876;28;20036;-66
2023/08/26 04:11:30;;;;;;;36.15;20.00;;;;;;;;;;5036582;28;20393;-66
2023/08/26 04:13:56;;;;;;;39.10;20.00;;;;;;;;;;5035001;28;20017;-67
2023/08/26 04:16:21;;;;;;;37.28;20.55;;;;;;;;;;5034878;28;20478;-66
2023/08/26 04:18:47;;;;;;;37.80;19.92;;;;;;;;;;5042307;28;20417;-67
2023/08/26 04:21:13;;;;;;;38.53;19.92;;;;;;;;;;5034099;28;20032;-65
2023/08/26 04:23:38;;;;;;;38.13;19.42;;;;;;;;;;5051740;28;20033;-67
2023/08/26 04:26:03;;;;;;;31.60;17.02;;;;;;;;;;5044052;28;20037;-66
2023/08/26 04:28:29;;;;;;;29.23;16.65;;;;;;;;;;5034778;28;20075;-66
2023/08/26 04:30:54;;;;;;;32.25;18.08;;;;;;;;;;5041764;28;20382;-66
2023/08/26 04:33:20;;;;;;;29.45;16.27;;;;;;;;;;5033366;28;20022;-65
2023/08/26 04:35:45;;;;;;;31.05;16.58;;;;;;;;;;5044969;28;20017;-66
2023/08/26 04:38:10;;;;;;;32.38;16.40;;;;;;;;;;5039021;28;20034;-66
2023/08/26 04:40:36;;;;;;;30.92;17.40;;;;;;;;;;5043971;28;20021;-66
2023/08/26 04:43:03;;;;;;;26.30;15.95;;;;;;;;;;5037710;28;20021;-68
2023/08/26 04:45:29;;;;;;;26.73;16.27;;;;;;;;;;5034326;28;20432;-67
2023/08/26 04:47:54;;;;;;;28.27;15.75;;;;;;;;;;5034273;28;20029;-67
2023/08/26 04:50:19;;;;;;;25.58;15.15;;;;;;;;;;5033599;28;20178;-67
2023/08/26 04:52:44;;;;;;;33.60;16.73;;;;;;;;;;5034843;28;20049;-67
2023/08/26 04:55:10;;;;;;;29.15;16.23;;;;;;;;;;5033081;28;20121;-67
2023/08/26 04:57:35;;;;;;;27.65;16.10;;;;;;;;;;5033751;28;20033;-67
2023/08/26 05:00:01;;;;;;;29.85;16.92;;;;;;;;;;5037823;28;20052;-67
2023/08/26 05:02:26;;;;;;;30.08;16.23;;;;;;;;;;5033705;28;20063;-66
2023/08/26 05:04:53;;;;;;;28.77;14.93;;;;;;;;;;5031993;28;20135;-66
2023/08/26 05:07:18;;;;;;;23.40;14.00;;;;;;;;;;5031344;28;20039;-66
2023/08/26 05:09:43;;;;;;;21.02;13.18;;;;;;;;;;5035334;28;20116;-66
2023/08/26 05:12:09;;;;;;;23.65;13.43;;;;;;;;;;5033828;28;20079;-66
2023/08/26 05:14:34;;;;;;;20.17;12.55;;;;;;;;;;5033939;28;20022;-68
2023/08/26 05:16:59;;;;;;;21.42;13.73;;;;;;;;;;5033794;28;20024;-69
2023/08/26 05:19:24;;;;;;;19.58;12.85;;;;;;;;;;5051149;28;20017;-69
2023/08/26 05:21:50;;;;;;;21.58;13.55;;;;;;;;;;5041376;28;20045;-69
2023/08/26 05:24:15;;;;;;;27.02;14.73;;;;;;;;;;5049454;28;20442;-69
2023/08/26 05:26:42;;;;;;;25.38;14.23;;;;;;;;;;5034810;28;20433;-69
2023/08/26 05:29:08;;;;;;;29.20;15.02;;;;;;;;;;5038861;28;20016;-69
2023/08/26 05:31:33;;;;;;;21.88;14.43;;;;;;;;;;5037627;28;20347;-68
2023/08/26 05:33:59;;;;;;;26.83;15.25;;;;;;;;;;5033876;28;20026;-68
2023/08/26 05:36:24;;;;;;;20.45;12.88;;;;;;;;;;5039247;28;20056;-68
2023/08/26 05:38:49;;;;;;;19.08;12.07;;;;;;;;;;5052068;28;20037;-68
2023/08/26 05:41:15;;;;;;;25.40;13.23;;;;;;;;;;5033211;28;20017;-68
2023/08/26 05:43:41;;;;;;;18.27;12.13;;;;;;;;;;5032504;28;20028;-66
2023/08/26 05:46:06;;;;;;;20.35;12.32;;;;;;;;;;5034071;28;20037;-66
2023/08/26 05:48:31;;;;;;;22.92;13.30;;;;;;;;;;5033003;28;20029;-67
2023/08/26 05:51:00;;;;;;;25.10;14.13;;;;;;;;;;5033660;28;20053;-68
2023/08/26 05:53:27;;;;;;;27.55;14.32;;;;;;;;;;5036704;28;20028;-67
2023/08/26 05:55:52;;;;;;;25.30;14.68;;;;;;;;;;5049483;28;20384;-68
2023/08/26 05:58:18;;;;;;;30.90;16.50;;;;;;;;;;5045408;28;20037;-66
2023/08/26 06:00:43;;;;;;;33.75;16.98;;;;;;;;;;5039037;28;20017;-67
2023/08/26 06:03:08;;;;;;;35.05;19.00;;;;;;;;;;5051404;28;20054;-67
2023/08/26 06:05:33;;;;;;;32.63;17.77;;;;;;;;;;5048856;28;20056;-67
2023/08/26 06:07:59;;;;;;;33.25;16.77;;;;;;;;;;5032275;28;20078;-67
2023/08/26 06:10:24;;;;;;;33.03;17.50;;;;;;;;;;5032943;28;20014;-67
2023/08/26 06:12:49;;;;;;;32.03;16.60;;;;;;;;;;5036618;28;20025;-69
2023/08/26 06:15:14;;;;;;;33.65;17.73;;;;;;;;;;5049313;28;20025;-66
2023/08/26 06:17:41;;;;;;;31.38;17.77;;;;;;;;;;5033308;28;20108;-66
2023/08/26 06:20:06;;;;;;;33.50;17.77;;;;;;;;;;5032885;28;20147;-67
2023/08/26 06:22:32;;;;;;;34.00;17.33;;;;;;;;;;5027532;28;20124;-66
2023/08/26 06:24:57;;;;;;;33.22;18.17;;;;;;;;;;5035338;28;20064;-66
2023/08/26 06:27:23;;;;;;;30.35;17.17;;;;;;;;;;5031908;28;20037;-65
2023/08/26 06:29:52;;;;;;;26.58;15.38;;;;;;;;;;5033314;28;20037;-65
2023/08/26 06:32:17;;;;;;;29.15;16.73;;;;;;;;;;5032334;28;20049;-64
2023/08/26 06:34:42;;;;;;;30.02;17.08;;;;;;;;;;5032430;28;20048;-66
2023/08/26 06:37:07;;;;;;;35.55;19.23;;;;;;;;;;5032180;28;20037;-65
2023/08/26 06:39:33;;;;;;;36.70;21.02;;;;;;;;;;5041039;28;20033;-66
2023/08/26 06:41:58;;;;;;;38.38;19.75;;;;;;;;;;5032443;28;20025;-65
2023/08/26 06:44:23;;;;;;;35.72;19.95;;;;;;;;;;5032498;28;20121;-65
2023/08/26 06:46:48;;;;;;;35.05;19.90;;;;;;;;;;5035451;28;20083;-65
2023/08/26 06:49:13;;;;;;;32.30;19.13;;;;;;;;;;5051319;28;20012;-65
2023/08/26 06:51:39;;;;;;;33.28;19.25;;;;;;;;;;5051264;28;20017;-66
2023/08/26 06:54:04;;;;;;;32.20;18.75;;;;;;;;;;5051126;28;20021;-65
2023/08/26 06:56:29;;;;;;;32.75;20.10;;;;;;;;;;5039050;28;20021;-66
2023/08/26 06:58:55;;;;;;;30.75;18.10;;;;;;;;;;5032423;28;20025;-64
2023/08/26 07:01:20;;;;;;;27.90;16.05;;;;;;;;;;5031339;28;20428;-65
2023/08/26 07:03:45;;;;;;;30.25;17.10;;;;;;;;;;5031963;28;20148;-66
2023/08/26 07:06:11;;;;;;;23.83;14.73;;;;;;;;;;5037553;28;20028;-67
2023/08/26 07:08:36;;;;;;;28.05;17.08;;;;;;;;;;5044808;28;20021;-66
2023/08/26 07:11:02;;;;;;;24.20;17.10;;;;;;;;;;5036186;28;20024;-67
2023/08/26 07:13:27;;;;;;;25.77;17.48;;;;;;;;;;5041108;28;20025;-67
2023/08/26 07:15:52;;;;;;;27.17;15.02;;;;;;;;;;5035705;28;20030;-65
2023/08/26 07:18:18;;;;;;;27.02;16.40;;;;;;;;;;5046641;28;20046;-66
2023/08/26 07:20:43;;;;;;;24.42;17.35;;;;;;;;;;5050008;28;20096;-67
2023/08/26 07:23:09;;;;;;;25.00;17.17;;;;;;;;;;5037635;28;20057;-66
2023/08/26 07:25:34;;;;;;;22.52;15.65;;;;;;;;;;5036343;28;20026;-67
2023/08/26 07:27:59;;;;;;;20.13;12.55;;;;;;;;;;5036983;28;20538;-66
2023/08/26 07:30:26;;;;;;;22.33;13.25;;;;;;;;;;5037374;28;20534;-66
2023/08/26 07:32:52;;;;;;;24.13;15.02;;;;;;;;;;5018206;28;20021;-65
2023/08/26 07:35:17;;;;;;;25.02;16.58;;;;;;;;;;5035072;28;20462;-66
2023/08/26 07:37:43;;;;;;;24.98;16.50;;;;;;;;;;5035472;28;20025;-67
2023/08/26 07:40:12;;;;;;;27.23;17.50;;;;;;;;;;5035697;28;20021;-66
2023/08/26 07:42:37;;;;;;;24.17;15.55;;;;;;;;;;5032819;28;20500;-66
2023/08/26 07:45:03;;;;;;;24.48;14.85;;;;;;;;;;5036065;28;20029;-66
2023/08/26 07:47:28;;;;;;;20.13;13.63;;;;;;;;;;5037455;28;20021;-67
2023/08/26 07:49:54;;;;;;;19.88;12.15;;;;;;;;;;5038168;28;20055;-65
2023/08/26 07:52:19;;;;;;;22.80;14.30;;;;;;;;;;5028673;28;20613;-65
2023/08/26 07:54:44;;;;;;;26.80;13.15;;;;;;;;;;5037232;28;20026;-65
2023/08/26 07:57:09;;;;;;;19.45;12.10;;;;;;;;;;5040897;28;20017;-65
2023/08/26 07:59:35;;;;;;;17.35;11.35;;;;;;;;;;5038529;28;20013;-65
2023/08/26 08:02:00;;;;;;;11.10;7.13;;;;;;;;;;5035481;28;20018;-66
2023/08/26 08:04:26;;;;;;;15.73;9.15;;;;;;;;;;5039374;28;20041;-65
2023/08/26 08:06:51;;;;;;;14.25;9.82;;;;;;;;;;5035830;28;20021;-66
2023/08/26 08:09:16;;;;;;;13.32;8.95;;;;;;;;;;5035666;28;20067;-67
2023/08/26 08:11:42;;;;;;;15.50;9.18;;;;;;;;;;5035570;28;20043;-66
2023/08/26 08:14:07;;;;;;;15.38;10.23;;;;;;;;;;5035666;28;20422;-66
2023/08/26 08:16:32;;;;;;;16.48;8.90;;;;;;;;;;5033064;28;20385;-66
2023/08/26 08:18:57;;;;;;;13.68;7.00;;;;;;;;;;5032231;28;20482;-65
2023/08/26 08:21:23;;;;;;;13.00;7.88;;;;;;;;;;5033027;28;20029;-66
2023/08/26 08:23:48;;;;;;;12.57;7.65;;;;;;;;;;5035362;28;20034;-66
2023/08/26 08:26:14;;;;;;;11.40;5.93;;;;;;;;;;5033396;28;20568;-66
2023/08/26 08:28:39;;;;;;;13.70;6.63;;;;;;;;;;5033200;28;20057;-66
2023/08/26 08:31:04;;;;;;;11.32;6.35;;;;;;;;;;5035747;28;20022;-67
2023/08/26 08:33:29;;;;;;;13.52;6.78;;;;;;;;;;5033992;28;20048;-69
2023/08/26 08:35:55;;;;;;;11.27;5.47;;;;;;;;;;5035321;28;20427;-69
2023/08/26 08:38:20;;;;;;;13.13;7.07;;;;;;;;;;5033672;28;20572;-67
2023/08/26 08:40:45;;;;;;;10.98;5.88;;;;;;;;;;5034493;28;20028;-66
2023/08/26 08:43:12;;;;;;;11.48;6.00;;;;;;;;;;5034487;28;20055;-66
2023/08/26 08:45:38;;;;;;;12.68;6.35;;;;;;;;;;5034302;28;20025;-67
2023/08/26 08:48:03;;;;;;;17.83;6.30;;;;;;;;;;5034303;28;20029;-66
2023/08/26 08:50:30;;;;;;;13.38;5.88;;;;;;;;;;5033475;28;20469;-66
2023/08/26 08:52:56;;;;;;;12.57;5.63;;;;;;;;;;5034926;28;20083;-67
2023/08/26 08:55:22;;;;;;;9.23;5.00;;;;;;;;;;5033874;28;20461;-66
2023/08/26 08:57:47;;;;;;;10.05;4.53;;;;;;;;;;5033516;28;20033;-66
2023/08/26 09:00:13;;;;;;;9.32;4.13;;;;;;;;;;5033426;28;20087;-66
2023/08/26 09:02:42;;;;;;;10.80;4.20;;;;;;;;;;5033035;28;20164;-65
2023/08/26 09:05:08;;;;;;;7.72;3.05;;;;;;;;;;5037597;28;20041;-65
2023/08/26 09:07:34;;;;;;;7.50;3.00;;;;;;;;;;5033453;28;20036;-64
2023/08/26 09:10:00;;;;;;;6.20;3.00;;;;;;;;;;5040182;28;20426;-65
2023/08/26 09:12:25;;;;;;;8.27;2.60;;;;;;;;;;5032863;28;20048;-65
2023/08/26 09:14:52;;;;;;;9.90;3.22;;;;;;;;;;5034593;28;20121;-66
2023/08/26 09:17:18;;;;;;;7.97;2.85;;;;;;;;;;5032467;28;20059;-66
2023/08/26 09:19:58;;;;;;;6.15;2.47;;;;;;;;;;5033573;28;20022;-66
2023/08/26 09:22:23;;;;;;;10.57;2.70;;;;;;;;;;5034728;28;20470;-66
2023/08/26 09:24:52;;;;;;;6.78;2.88;;;;;;;;;;5036778;28;20029;-66
2023/08/26 09:27:18;;;;;;;9.35;3.47;;;;;;;;;;5034691;28;20451;-66
2023/08/26 09:29:43;;;;;;;9.25;2.65;;;;;;;;;;5032054;28;20105;-69
2023/08/26 09:32:08;;;;;;;7.15;2.60;;;;;;;;;;5032421;28;20021;-69
2023/08/26 09:34:34;;;;;;;8.43;2.95;;;;;;;;;;5031910;28;20417;-65
2023/08/26 09:36:59;;;;;;;9.68;3.03;;;;;;;;;;5031700;28;20423;-65
2023/08/26 09:39:28;;;;;;;7.75;2.20;;;;;;;;;;5033107;28;20026;-65
2023/08/26 09:41:56;;;;;;;6.93;1.92;;;;;;;;;;5035038;28;20048;-66
2023/08/26 09:44:22;;;;;;;6.22;2.00;;;;;;;;;;5032848;28;20025;-66
2023/08/26 09:46:48;;;;;;;6.85;2.20;;;;;;;;;;5032171;28;20100;-66
2023/08/26 09:49:13;;;;;;;6.90;2.35;;;;;;;;;;5033495;28;20028;-65
2023/08/26 09:51:43;;;;;;;7.95;2.13;;;;;;;;;;5031973;28;20025;-67
2023/08/26 09:54:10;;;;;;;6.57;2.08;;;;;;;;;;5032120;28;20021;-66
2023/08/26 09:56:35;;;;;;;5.38;1.85;;;;;;;;;;5029738;28;20488;-66
2023/08/26 09:59:00;;;;;;;9.07;2.20;;;;;;;;;;5033923;28;20060;-68
2023/08/26 10:01:26;;;;;;;6.63;2.40;;;;;;;;;;5031762;28;20313;-67
2023/08/26 10:04:11;;;;;;;8.88;2.60;;;;;;;;;;5032339;28;20103;-67
2023/08/26 10:07:03;;;;;;;6.80;2.10;;;;;;;;;;5038223;28;20033;-67
2023/08/26 10:09:28;;;;;;;;;;;;;;;;;;5028437;28;20053;-69
2023/08/26 10:11:54;;;;;;;6.95;2.00;;;;;;;;;;5033407;28;20328;-67
2023/08/26 10:14:21;;;;;;;9.32;2.20;;;;;;;;;;5033377;28;20087;-67
2023/08/26 10:16:47;;;;;;;6.30;2.45;;;;;;;;;;5032307;28;20073;-66
2023/08/26 10:19:13;;;;;;;10.15;2.70;;;;;;;;;;5032901;28;20423;-66
2023/08/26 10:21:38;;;;;;;5.70;1.77;;;;;;;;;;5030240;28;20029;-67
2023/08/26 10:24:04;;;;;;;4.82;1.98;;;;;;;;;;5032494;28;20036;-66
2023/08/26 10:26:29;;;;;;;7.72;1.90;;;;;;;;;;5030048;28;20057;-66
2023/08/26 10:28:55;;;;;;;4.60;1.50;;;;;;;;;;5032959;28;20045;-65
2023/08/26 10:31:21;;;;;;;8.20;1.95;;;;;;;;;;5033409;28;20105;-66
2023/08/26 10:33:57;;;;;;;6.18;1.90;;;;;;;;;;5033203;28;20010;-66
2023/08/26 10:36:22;;;;;;;7.72;1.90;;;;;;;;;;5032743;28;20018;-66
2023/08/26 10:38:57;;;;;;;7.72;1.80;;;;;;;;;;5030974;28;20029;-67
2023/08/26 10:41:23;;;;;;;10.52;2.20;;;;;;;;;;5031817;28;20028;-68
2023/08/26 10:43:52;;;;;;;8.23;2.33;;;;;;;;;;5032685;28;20477;-67
2023/08/26 10:46:17;;;;;;;6.97;1.88;;;;;;;;;;5030082;28;20021;-67
2023/08/26 10:48:59;;;;;;;4.95;1.67;;;;;;;;;;5032534;28;20021;-66
2023/08/26 10:51:24;;;;;;;7.32;1.90;;;;;;;;;;5032927;28;20113;-68
2023/08/26 10:53:50;;;;;;;6.75;2.00;;;;;;;;;;5032685;28;20041;-68
2023/08/26 10:56:19;;;;;;;5.90;1.60;;;;;;;;;;5032717;28;20025;-68
2023/08/26 10:58:46;;;;;;;8.70;1.88;;;;;;;;;;5032860;28;20433;-68
2023/08/26 11:01:12;;;;;;;5.68;2.00;;;;;;;;;;5033057;28;20389;-67
2023/08/26 11:03:37;;;;;;;7.57;2.25;;;;;;;;;;5032687;28;20044;-67
2023/08/26 11:06:08;;;;;;;4.80;1.50;;;;;;;;;;5032585;28;20021;-70
2023/08/26 11:08:35;;;;;;;4.18;1.45;;;;;;;;;;5032867;28;20115;-70
2023/08/26 11:11:01;;;;;;;4.63;1.50;;;;;;;;;;5032969;28;20052;-68
2023/08/26 11:13:26;;;;;;;6.95;1.58;;;;;;;;;;5032560;28;20017;-70
2023/08/26 11:15:51;;;;;;;5.30;1.63;;;;;;;;;;5032322;28;20384;-67
2023/08/26 11:18:17;;;;;;;8.68;1.73;;;;;;;;;;5032868;28;20017;-67
2023/08/26 11:20:43;;;;;;;5.75;1.52;;;;;;;;;;5032670;28;20026;-69
2023/08/26 11:23:08;;;;;;;3.83;1.20;;;;;;;;;;5032727;28;20033;-67
2023/08/26 11:25:34;;;;;;;9.43;2.33;;;;;;;;;;5032603;28;20021;-67
2023/08/26 11:28:07;;;;;;;6.45;1.60;;;;;;;;;;5032432;28;20068;-67
2023/08/26 11:30:37;;;;;;;5.38;1.42;;;;;;;;;;5032563;28;20024;-70
2023/08/26 11:33:07;;;;;;;5.75;1.98;;;;;;;;;;5032454;28;20493;-69
2023/08/26 11:35:32;;;;;;;4.95;1.30;;;;;;;;;;5031396;28;20021;-70
2023/08/26 11:37:57;;;;;;;4.93;1.40;;;;;;;;;;5032701;28;20029;-70
2023/08/26 11:40:23;;;;;;;4.22;1.13;;;;;;;;;;5032492;28;20485;-69
2023/08/26 11:42:48;;;;;;;5.15;1.40;;;;;;;;;;5032136;28;20485;-69
2023/08/26 11:45:13;;;;;;;7.05;1.55;;;;;;;;;;5030917;28;20486;-71
2023/08/26 11:47:42;;;;;;;5.18;1.40;;;;;;;;;;5032317;28;20079;-70
2023/08/26 11:50:10;;;;;;;4.63;1.40;;;;;;;;;;5032762;28;20485;-71
2023/08/26 11:52:36;;;;;;;5.20;1.42;;;;;;;;;;5032906;28;20027;-72
2023/08/26 11:55:02;;;;;;;9.55;1.60;;;;;;;;;;5036436;28;20124;-72
2023/08/26 11:57:28;;;;;;;4.22;1.30;;;;;;;;;;5035714;28;20108;-71
2023/08/26 12:00:04;;;;;;;8.63;1.63;;;;;;;;;;5035534;28;20049;-71
2023/08/26 12:02:30;;;;;;;3.47;1.08;;;;;;;;;;5035146;28;20424;-69
2023/08/26 12:04:57;;;;;;;4.93;1.45;;;;;;;;;;5045680;28;20049;-71
2023/08/26 12:07:22;;;;;;;3.63;1.25;;;;;;;;;;5039785;28;20025;-70
2023/08/26 12:09:47;;;;;;;4.72;1.25;;;;;;;;;;5036030;28;20033;-71
2023/08/26 12:12:16;;;;;;;3.90;1.10;;;;;;;;;;5035860;28;20427;-69
2023/08/26 12:14:42;;;;;;;4.70;1.30;;;;;;;;;;5035930;28;20104;-70
2023/08/26 12:17:07;;;;;;;5.95;1.60;;;;;;;;;;5034663;28;20053;-72
2023/08/26 12:19:32;;;;;;;5.43;1.42;;;;;;;;;;5033041;28;20401;-72
2023/08/26 12:21:58;;;;;;;6.13;1.42;;;;;;;;;;5034297;28;20625;-71
2023/08/26 12:24:24;;;;;;;3.95;1.08;;;;;;;;;;5035203;28;20025;-70
2023/08/26 12:26:49;;;;;;;5.07;1.58;;;;;;;;;;5035297;28;20493;-71
2023/08/26 12:29:15;;;;;;;5.80;1.48;;;;;;;;;;5035896;28;20029;-70
2023/08/26 12:31:40;;;;;;;5.95;1.23;;;;;;;;;;5035164;28;20056;-70
2023/08/26 12:34:05;;;;;;;6.47;1.38;;;;;;;;;;5035535;28;20397;-71
2023/08/26 12:36:31;;;;;;;6.18;1.40;;;;;;;;;;5035622;28;20104;-70
2023/08/26 12:38:56;;;;;;;5.22;1.30;;;;;;;;;;5033380;28;20508;-70
2023/08/26 12:41:21;;;;;;;5.25;1.60;;;;;;;;;;5035317;28;20100;-70
2023/08/26 12:43:48;;;;;;;4.85;1.27;;;;;;;;;;5039639;28;20504;-70
2023/08/26 12:46:13;;;;;;;7.35;1.77;;;;;;;;;;5032200;28;20042;-70
2023/08/26 12:48:38;;;;;;;4.80;1.40;;;;;;;;;;5033058;28;20087;-71
2023/08/26 12:51:05;;;;;;;5.03;1.50;;;;;;;;;;5033304;28;20017;-70
2023/08/26 12:53:31;;;;;;;3.45;1.10;;;;;;;;;;5033577;28;20029;-72
2023/08/26 12:55:58;;;;;;;3.90;1.23;;;;;;;;;;5033896;28;20385;-70
2023/08/26 12:58:24;;;;;;;3.78;1.10;;;;;;;;;;5034140;28;20026;-71
2023/08/26 13:00:50;;;;;;;4.43;1.10;;;;;;;;;;5034036;28;20497;-72
2023/08/26 13:03:15;;;;;;;3.25;1.00;;;;;;;;;;5033377;28;20025;-70
2023/08/26 13:05:40;;;;;;;5.38;1.20;;;;;;;;;;5033496;28;20049;-72
2023/08/26 13:08:06;;;;;;;4.75;1.17;;;;;;;;;;5034586;28;20022;-72
2023/08/26 13:10:32;;;;;;;5.03;1.67;;;;;;;;;;5032889;28;20049;-71
2023/08/26 13:12:57;;;;;;;5.35;1.20;;;;;;;;;;5038010;28;20070;-71
2023/08/26 13:15:23;;;;;;;5.88;1.17;;;;;;;;;;5030693;28;20475;-72
2023/08/26 13:17:51;;;;;;;4.20;1.00;;;;;;;;;;5033071;28;20389;-72
2023/08/26 13:20:16;;;;;;;4.03;1.17;;;;;;;;;;5033323;28;20021;-71
2023/08/26 13:22:42;;;;;;;3.22;1.23;;;;;;;;;;5033255;28;20031;-72
2023/08/26 13:25:08;;;;;;;3.70;1.10;;;;;;;;;;5033938;28;20281;-71
2023/08/26 13:27:33;;;;;;;4.88;1.27;;;;;;;;;;5032604;28;20025;-70
2023/08/26 13:29:58;;;;;;;3.10;1.00;;;;;;;;;;5033353;28;20381;-70
2023/08/26 13:32:24;;;;;;;4.32;1.10;;;;;;;;;;5032253;28;20048;-70
2023/08/26 13:34:49;;;;;;;3.05;1.00;;;;;;;;;;5032115;28;20424;-72
2023/08/26 13:37:14;;;;;;;4.53;1.70;;;;;;;;;;5032179;28;20020;-72
2023/08/26 13:39:39;;;;;;;5.00;1.00;;;;;;;;;;5032834;28;20029;-72
2023/08/26 13:42:07;;;;;;;4.40;1.00;;;;;;;;;;5033224;28;20021;-73
2023/08/26 13:44:32;;;;;;;3.72;1.00;;;;;;;;;;5033102;28;20024;-72
2023/08/26 13:46:57;;;;;;;3.33;0.80;;;;;;;;;;5032264;28;20022;-71
2023/08/26 13:49:23;;;;;;;5.60;1.10;;;;;;;;;;5032674;28;20035;-73
2023/08/26 13:51:48;;;;;;;2.83;0.98;;;;;;;;;;5033972;28;20031;-71
2023/08/26 13:54:13;;;;;;;4.35;1.00;;;;;;;;;;5034207;28;20021;-69
2023/08/26 13:56:38;;;;;;;3.25;1.00;;;;;;;;;;5033489;28;20021;-71
2023/08/26 13:59:04;;;;;;;3.45;0.90;;;;;;;;;;5033700;28;20409;-70
2023/08/26 14:01:29;;;;;;;1.95;0.70;;;;;;;;;;5033959;28;20030;-68
2023/08/26 14:03:54;;;;;;;4.22;1.00;;;;;;;;;;5033372;28;20335;-69
2023/08/26 14:06:19;;;;;;;4.05;0.98;;;;;;;;;;5033825;28;20025;-68
2023/08/26 14:08:45;;;;;;;2.60;0.77;;;;;;;;;;5031489;28;20095;-68
2023/08/26 14:11:10;;;;;;;5.05;1.00;;;;;;;;;;5033286;28;20096;-69
2023/08/26 14:13:35;;;;;;;3.53;0.82;;;;;;;;;;5032418;28;20023;-67
2023/08/26 14:16:00;;;;;;;3.58;1.00;;;;;;;;;;5030730;28;20018;-68
2023/08/26 14:18:26;;;;;;;3.38;0.70;;;;;;;;;;5034515;28;20420;-70
2023/08/26 14:20:51;;;;;;;2.78;0.70;;;;;;;;;;5032224;28;20167;-69
2023/08/26 14:23:16;;;;;;;2.17;0.70;;;;;;;;;;5033349;28;20108;-69